Time;durP1;ratioP1;P1;durP2;ratioP2;P2;SDS_P1;SDS_P2;PMS_P1;PMS_P2;Temp;Humidity;BMP_temperature;BMP_pressure;BME280_temperature;BME280_humidity;BME280_pressure;Samples;Min_cycle;Max_cycle;Signal;HPM_P1;HPM_P2
2024/02/27 00:01:47;;;;;;;0.20;0.10;;;;;;;;;;5031318;28;20052;-82
2024/02/27 00:04:14;;;;;;;0.20;0.10;;;;;;;;;;5016367;28;20068;-84
2024/02/27 00:06:40;;;;;;;0.20;0.10;;;;;;;;;;5011852;28;20045;-81
2024/02/27 00:09:13;;;;;;;0.20;0.10;;;;;;;;;;5016496;28;20040;-83
2024/02/27 00:11:39;;;;;;;;;;;;;;;;;;5016042;28;20033;-81
2024/02/27 00:14:05;;;;;;;0.20;0.08;;;;;;;;;;5014570;28;19921;-83
2024/02/27 00:16:31;;;;;;;0.20;0.10;;;;;;;;;;5014546;28;20124;-82
2024/02/27 00:18:57;;;;;;;0.20;0.10;;;;;;;;;;5027304;28;20083;-84
2024/02/27 00:21:23;;;;;;;0.20;0.10;;;;;;;;;;5033019;28;20473;-83
2024/02/27 00:23:49;;;;;;;0.20;0.10;;;;;;;;;;5030251;28;20075;-84
2024/02/27 00:26:15;;;;;;;0.20;0.10;;;;;;;;;;5030502;28;20068;-84
2024/02/27 00:28:41;;;;;;;0.20;0.10;;;;;;;;;;5033650;28;20435;-82
2024/02/27 00:31:07;;;;;;;0.20;0.20;;;;;;;;;;5016230;28;20040;-82
2024/02/27 00:33:33;;;;;;;0.20;0.05;;;;;;;;;;5033879;28;20298;-83
2024/02/27 00:36:01;;;;;;;0.20;0.10;;;;;;;;;;5017214;28;20049;-83
2024/02/27 00:38:27;;;;;;;0.20;0.20;;;;;;;;;;5033307;28;20152;-82
2024/02/27 00:40:53;;;;;;;0.20;0.00;;;;;;;;;;5034621;28;20128;-84
2024/02/27 00:43:19;;;;;;;0.55;0.25;;;;;;;;;;5018327;28;20033;-83
2024/02/27 00:45:45;;;;;;;0.20;0.00;;;;;;;;;;5031456;28;20033;-83
2024/02/27 00:48:11;;;;;;;0.20;0.10;;;;;;;;;;5019107;28;20068;-81
2024/02/27 00:50:39;;;;;;;0.20;0.08;;;;;;;;;;5034803;28;20049;-85
2024/02/27 00:53:05;;;;;;;0.20;0.10;;;;;;;;;;5028516;28;20521;-84
2024/02/27 00:55:31;;;;;;;0.20;0.10;;;;;;;;;;5011827;28;20036;-82
2024/02/27 00:57:57;;;;;;;0.20;0.00;;;;;;;;;;5031827;28;20043;-82
2024/02/27 01:00:23;;;;;;;0.20;0.10;;;;;;;;;;5015117;28;20127;-85
2024/02/27 01:02:49;;;;;;;0.20;0.10;;;;;;;;;;5018147;28;20052;-84
2024/02/27 01:05:15;;;;;;;0.20;0.10;;;;;;;;;;5032387;28;20044;-82
2024/02/27 01:07:42;;;;;;;0.20;0.10;;;;;;;;;;5031770;28;20704;-84
2024/02/27 01:10:08;;;;;;;0.20;0.08;;;;;;;;;;5018719;28;20044;-83
2024/02/27 01:12:34;;;;;;;0.20;0.08;;;;;;;;;;5023679;28;20052;-84
2024/02/27 01:15:00;;;;;;;0.28;0.15;;;;;;;;;;5013791;28;20044;-83
2024/02/27 01:17:26;;;;;;;0.20;0.10;;;;;;;;;;5009717;28;20052;-87
2024/02/27 01:19:52;;;;;;;0.20;0.10;;;;;;;;;;5028049;28;20036;-83
2024/02/27 01:22:33;;;;;;;0.20;0.10;;;;;;;;;;5010440;28;20059;-83
2024/02/27 01:24:59;;;;;;;0.20;0.10;;;;;;;;;;5012830;28;20496;-84
2024/02/27 01:27:25;;;;;;;0.20;0.10;;;;;;;;;;5015188;28;20043;-82
2024/02/27 01:29:52;;;;;;;0.20;0.10;;;;;;;;;;5032178;28;20052;-83
2024/02/27 01:32:18;;;;;;;0.20;0.10;;;;;;;;;;5012647;28;20045;-82
2024/02/27 01:34:44;;;;;;;0.20;0.10;;;;;;;;;;5026027;28;20504;-84
2024/02/27 01:37:10;;;;;;;0.20;0.10;;;;;;;;;;5010151;28;20068;-83
2024/02/27 01:39:36;;;;;;;0.20;0.10;;;;;;;;;;5031513;28;20033;-81
2024/02/27 01:42:02;;;;;;;0.20;0.10;;;;;;;;;;5028665;28;20033;-85
2024/02/27 01:44:28;;;;;;;0.20;0.20;;;;;;;;;;5029116;28;20045;-84
2024/02/27 01:47:04;;;;;;;0.20;0.03;;;;;;;;;;5029348;28;20094;-81
2024/02/27 01:49:30;;;;;;;0.20;0.03;;;;;;;;;;5015382;28;20071;-84
2024/02/27 01:51:57;;;;;;;0.30;0.30;;;;;;;;;;5026249;28;20069;-82
2024/02/27 01:54:24;;;;;;;0.20;0.10;;;;;;;;;;5008803;28;20048;-83
2024/02/27 01:56:53;;;;;;;0.20;0.20;;;;;;;;;;5029510;28;20033;-84
2024/02/27 01:59:21;;;;;;;0.20;0.10;;;;;;;;;;5012611;28;20067;-83
2024/02/27 02:01:49;;;;;;;0.20;0.10;;;;;;;;;;5025207;28;20055;-82
2024/02/27 02:04:16;;;;;;;0.20;0.10;;;;;;;;;;5029389;28;20067;-84
2024/02/27 02:06:43;;;;;;;0.20;0.10;;;;;;;;;;5027328;28;20049;-83
2024/02/27 02:09:09;;;;;;;0.25;0.25;;;;;;;;;;5008288;28;20045;-82
2024/02/27 02:11:35;;;;;;;0.20;0.10;;;;;;;;;;5027217;28;20051;-84
2024/02/27 02:14:02;;;;;;;0.20;0.10;;;;;;;;;;5008855;28;20064;-82
2024/02/27 02:16:28;;;;;;;0.20;0.20;;;;;;;;;;5006802;28;20037;-82
2024/02/27 02:18:56;;;;;;;0.20;0.10;;;;;;;;;;5028266;28;20124;-83
2024/02/27 02:21:22;;;;;;;0.20;0.10;;;;;;;;;;5014801;28;20032;-81
2024/02/27 02:23:48;;;;;;;0.20;0.05;;;;;;;;;;5013507;28;20045;-84
2024/02/27 02:26:15;;;;;;;0.20;0.10;;;;;;;;;;5031407;28;20029;-84
2024/02/27 02:28:42;;;;;;;0.20;0.10;;;;;;;;;;5028561;28;20120;-83
2024/02/27 02:31:08;;;;;;;0.20;0.10;;;;;;;;;;5014108;28;20055;-83
2024/02/27 02:33:34;;;;;;;0.20;0.10;;;;;;;;;;5025981;28;20041;-85
2024/02/27 02:36:00;;;;;;;0.20;0.10;;;;;;;;;;5012502;28;20041;-83
2024/02/27 02:38:26;;;;;;;0.20;0.10;;;;;;;;;;5023387;28;20099;-84
2024/02/27 02:40:54;;;;;;;0.20;0.10;;;;;;;;;;5026662;28;20028;-82
2024/02/27 02:43:20;;;;;;;0.20;0.10;;;;;;;;;;5033321;28;20586;-83
2024/02/27 02:45:46;;;;;;;11.50;0.65;;;;;;;;;;5031012;28;20045;-82
2024/02/27 02:48:12;;;;;;;0.20;0.10;;;;;;;;;;5015351;28;20308;-83
2024/02/27 02:50:38;;;;;;;0.20;0.10;;;;;;;;;;5028815;28;20090;-83
2024/02/27 02:53:04;;;;;;;0.20;0.10;;;;;;;;;;5024811;28;20657;-84
2024/02/27 02:55:30;;;;;;;0.20;0.03;;;;;;;;;;5017741;28;20048;-84
2024/02/27 02:57:56;;;;;;;0.20;0.10;;;;;;;;;;5016276;28;20037;-82
2024/02/27 03:00:22;;;;;;;0.20;0.10;;;;;;;;;;5032777;28;20045;-83
2024/02/27 03:02:48;;;;;;;0.20;0.10;;;;;;;;;;5028712;28;20051;-84
2024/02/27 03:05:15;;;;;;;0.20;0.10;;;;;;;;;;5030350;28;20087;-84
2024/02/27 03:07:41;;;;;;;0.20;0.10;;;;;;;;;;5028467;28;20111;-82
2024/02/27 03:10:08;;;;;;;0.20;0.10;;;;;;;;;;5024883;28;20119;-84
2024/02/27 03:12:34;;;;;;;0.20;0.10;;;;;;;;;;5017173;28;20037;-84
2024/02/27 03:15:01;;;;;;;0.20;0.10;;;;;;;;;;5028830;28;20037;-83
2024/02/27 03:17:27;;;;;;;0.20;0.08;;;;;;;;;;5030293;28;20039;-83
2024/02/27 03:19:53;;;;;;;0.20;0.10;;;;;;;;;;5014421;28;20125;-83
2024/02/27 03:22:19;;;;;;;0.30;0.20;;;;;;;;;;5025429;28;20090;-81
2024/02/27 03:24:45;;;;;;;0.20;0.10;;;;;;;;;;5013051;28;20045;-83
2024/02/27 03:27:12;;;;;;;0.20;0.10;;;;;;;;;;5029098;28;20044;-83
2024/02/27 03:29:38;;;;;;;0.20;0.10;;;;;;;;;;5027419;28;20055;-83
2024/02/27 03:32:04;;;;;;;0.20;0.10;;;;;;;;;;5012899;28;20076;-82
2024/02/27 03:34:33;;;;;;;0.20;0.10;;;;;;;;;;5029769;28;20075;-82
2024/02/27 03:36:59;;;;;;;0.20;0.10;;;;;;;;;;5049085;28;20059;-82
2024/02/27 03:39:25;;;;;;;0.20;0.10;;;;;;;;;;5027577;28;20489;-82
2024/02/27 03:41:51;;;;;;;0.47;0.30;;;;;;;;;;5025586;28;20032;-81
2024/02/27 03:44:17;;;;;;;0.20;0.10;;;;;;;;;;5012364;28;20049;-81
2024/02/27 03:46:43;;;;;;;0.20;0.10;;;;;;;;;;5033332;28;20044;-84
2024/02/27 03:49:09;;;;;;;0.20;0.10;;;;;;;;;;5007747;28;20041;-81
2024/02/27 03:51:35;;;;;;;0.20;0.10;;;;;;;;;;5010377;28;20092;-81
2024/02/27 03:54:01;;;;;;;0.20;0.10;;;;;;;;;;5012476;28;20109;-82
2024/02/27 03:56:27;;;;;;;0.20;0.10;;;;;;;;;;5007246;28;22017;-83
2024/02/27 03:58:53;;;;;;;0.25;0.20;;;;;;;;;;5008476;28;20123;-82
2024/02/27 04:01:19;;;;;;;0.20;0.10;;;;;;;;;;5026576;28;20116;-82
2024/02/27 04:03:45;;;;;;;0.20;0.10;;;;;;;;;;5009820;28;20054;-82
2024/02/27 04:06:11;;;;;;;0.20;0.10;;;;;;;;;;5020799;28;20028;-81
2024/02/27 04:08:38;;;;;;;0.20;0.10;;;;;;;;;;5025519;28;20041;-81
2024/02/27 04:11:04;;;;;;;0.20;0.15;;;;;;;;;;5025392;28;20038;-82
2024/02/27 04:13:30;;;;;;;0.20;0.10;;;;;;;;;;5009056;28;20968;-81
2024/02/27 04:15:56;;;;;;;0.20;0.10;;;;;;;;;;5024980;28;20052;-82
2024/02/27 04:18:23;;;;;;;0.20;0.10;;;;;;;;;;5021020;28;20497;-82
2024/02/27 04:20:49;;;;;;;0.20;0.10;;;;;;;;;;5023802;28;20033;-82
2024/02/27 04:23:15;;;;;;;0.20;0.08;;;;;;;;;;5025253;28;20033;-85
2024/02/27 04:25:41;;;;;;;0.20;0.10;;;;;;;;;;5022528;28;20040;-83
2024/02/27 04:28:07;;;;;;;0.20;0.10;;;;;;;;;;5010508;28;20042;-84
2024/02/27 04:30:33;;;;;;;0.20;0.10;;;;;;;;;;5009495;28;20049;-83
2024/02/27 04:33:00;;;;;;;0.20;0.10;;;;;;;;;;5012764;28;20039;-82
2024/02/27 04:35:26;;;;;;;1.42;0.68;;;;;;;;;;5010319;28;20033;-81
2024/02/27 04:37:52;;;;;;;0.20;0.10;;;;;;;;;;5006845;28;20175;-84
2024/02/27 04:40:18;;;;;;;0.57;0.25;;;;;;;;;;5027275;28;20521;-82
2024/02/27 04:42:44;;;;;;;0.20;0.10;;;;;;;;;;5026510;28;20077;-84
2024/02/27 04:45:10;;;;;;;0.20;0.15;;;;;;;;;;5009458;28;20124;-83
2024/02/27 04:47:36;;;;;;;0.20;0.10;;;;;;;;;;5014631;28;20045;-82
2024/02/27 04:50:02;;;;;;;0.20;0.10;;;;;;;;;;5030889;28;20597;-82
2024/02/27 04:52:29;;;;;;;0.20;0.00;;;;;;;;;;5030928;28;20041;-82
2024/02/27 04:54:54;;;;;;;0.20;0.10;;;;;;;;;;5008349;28;20462;-84
2024/02/27 04:57:20;;;;;;;0.20;0.03;;;;;;;;;;5014235;28;20029;-82
2024/02/27 04:59:49;;;;;;;0.20;0.10;;;;;;;;;;5026315;28;20099;-84
2024/02/27 05:02:15;;;;;;;0.20;0.10;;;;;;;;;;5030374;28;20037;-83
2024/02/27 05:04:41;;;;;;;0.40;0.40;;;;;;;;;;5012799;28;20095;-82
2024/02/27 05:07:07;;;;;;;0.20;0.20;;;;;;;;;;5024994;28;20497;-82
2024/02/27 05:09:33;;;;;;;0.20;0.10;;;;;;;;;;5008983;28;20072;-82
2024/02/27 05:12:00;;;;;;;0.20;0.10;;;;;;;;;;5012058;28;20041;-82
2024/02/27 05:14:26;;;;;;;0.20;0.10;;;;;;;;;;5028228;28;20123;-82
2024/02/27 05:16:52;;;;;;;0.20;0.00;;;;;;;;;;5012403;28;20128;-82
2024/02/27 05:19:19;;;;;;;0.20;0.10;;;;;;;;;;5014610;28;20572;-82
2024/02/27 05:21:46;;;;;;;0.20;0.10;;;;;;;;;;5011424;28;20075;-86
2024/02/27 05:24:12;;;;;;;0.20;0.20;;;;;;;;;;5021492;28;20028;-82
2024/02/27 05:26:38;;;;;;;0.20;0.10;;;;;;;;;;5007728;28;20136;-83
2024/02/27 05:29:04;;;;;;;0.20;0.10;;;;;;;;;;5020079;28;20044;-82
2024/02/27 05:31:30;;;;;;;0.20;0.10;;;;;;;;;;5004416;28;20412;-83
2024/02/27 05:33:57;;;;;;;0.20;0.15;;;;;;;;;;5004592;28;20056;-83
2024/02/27 05:36:24;;;;;;;0.20;0.10;;;;;;;;;;5017985;28;20041;-82
2024/02/27 05:38:50;;;;;;;0.47;0.47;;;;;;;;;;5003050;28;20063;-82
2024/02/27 05:41:17;;;;;;;0.47;0.45;;;;;;;;;;5002555;28;20408;-84
2024/02/27 05:43:43;;;;;;;0.20;0.00;;;;;;;;;;5020910;28;20041;-83
2024/02/27 05:46:09;;;;;;;0.20;0.10;;;;;;;;;;5022875;28;20525;-83
2024/02/27 05:48:39;;;;;;;0.20;0.10;;;;;;;;;;5020802;28;20045;-84
2024/02/27 05:51:09;;;;;;;0.20;0.10;;;;;;;;;;5019925;28;20049;-83
2024/02/27 05:53:36;;;;;;;0.20;0.10;;;;;;;;;;5004737;28;20624;-85
2024/02/27 05:56:02;;;;;;;0.20;0.10;;;;;;;;;;5009538;28;20040;-82
2024/02/27 05:58:28;;;;;;;0.20;0.10;;;;;;;;;;5006218;28;20075;-83
2024/02/27 06:00:55;;;;;;;0.20;0.10;;;;;;;;;;5006863;28;20040;-82
2024/02/27 06:03:22;;;;;;;0.20;0.10;;;;;;;;;;5022962;28;20049;-84
2024/02/27 06:05:48;;;;;;;0.20;0.10;;;;;;;;;;5025345;28;20041;-82
2024/02/27 06:08:14;;;;;;;0.20;0.10;;;;;;;;;;5021379;28;20068;-83
2024/02/27 06:10:41;;;;;;;0.20;0.10;;;;;;;;;;5022266;28;20052;-83
2024/02/27 06:13:07;;;;;;;0.20;0.10;;;;;;;;;;5025343;28;20039;-82
2024/02/27 06:15:33;;;;;;;0.20;0.10;;;;;;;;;;5026102;28;20069;-84
2024/02/27 06:17:59;;;;;;;0.20;0.10;;;;;;;;;;5003204;28;20736;-83
2024/02/27 06:23:10;;;;;;;0.20;0.10;;;;;;;;;;5028185;28;20135;-85
2024/02/27 06:25:36;;;;;;;0.20;0.10;;;;;;;;;;5007948;28;20671;-83
2024/02/27 06:28:02;;;;;;;0.20;0.10;;;;;;;;;;5027579;28;20049;-83
2024/02/27 06:30:31;;;;;;;0.32;0.32;;;;;;;;;;5024774;28;20642;-84
2024/02/27 06:32:57;;;;;;;0.28;0.25;;;;;;;;;;5002732;28;20045;-81
2024/02/27 06:35:24;;;;;;;0.20;0.10;;;;;;;;;;5023825;28;20072;-84
2024/02/27 06:37:51;;;;;;;0.20;0.10;;;;;;;;;;5011429;28;20626;-83
2024/02/27 06:40:17;;;;;;;0.20;0.10;;;;;;;;;;5024784;28;20041;-84
2024/02/27 06:42:43;;;;;;;0.20;0.10;;;;;;;;;;5027712;28;20156;-82
2024/02/27 06:45:09;;;;;;;0.20;0.10;;;;;;;;;;5014312;28;20127;-81
2024/02/27 06:47:40;;;;;;;0.20;0.10;;;;;;;;;;5025399;28;20183;-83
2024/02/27 06:50:07;;;;;;;0.20;0.00;;;;;;;;;;5024701;28;20049;-81
2024/02/27 06:52:33;;;;;;;0.20;0.10;;;;;;;;;;5026475;28;20137;-82
2024/02/27 06:54:59;;;;;;;0.20;0.10;;;;;;;;;;5023480;28;20071;-82
2024/02/27 06:57:26;;;;;;;0.20;0.10;;;;;;;;;;5024181;28;20040;-83
2024/02/27 06:59:52;;;;;;;0.20;0.10;;;;;;;;;;5016867;28;20037;-81
2024/02/27 07:02:18;;;;;;;0.20;0.20;;;;;;;;;;5049245;28;20629;-83
2024/02/27 07:04:44;;;;;;;1.00;0.40;;;;;;;;;;5013958;28;20040;-83
2024/02/27 07:07:10;;;;;;;0.20;0.10;;;;;;;;;;5016505;28;20032;-83
2024/02/27 07:09:36;;;;;;;0.20;0.05;;;;;;;;;;5010906;28;20025;-81
2024/02/27 07:12:02;;;;;;;0.35;0.20;;;;;;;;;;5023255;28;20083;-83
2024/02/27 07:14:29;;;;;;;0.20;0.05;;;;;;;;;;5032159;28;20083;-82
2024/02/27 07:16:55;;;;;;;0.38;0.38;;;;;;;;;;5014548;28;20045;-82
2024/02/27 07:19:22;;;;;;;0.20;0.10;;;;;;;;;;5012823;28;20037;-82
2024/02/27 07:21:48;;;;;;;0.20;0.20;;;;;;;;;;5030314;28;20036;-82
2024/02/27 07:24:18;;;;;;;1.58;0.30;;;;;;;;;;5032384;28;20045;-83
2024/02/27 07:26:44;;;;;;;0.20;0.20;;;;;;;;;;5026975;28;20583;-83
2024/02/27 07:29:13;;;;;;;0.20;0.10;;;;;;;;;;5016793;28;20150;-82
2024/02/27 07:31:39;;;;;;;0.20;0.10;;;;;;;;;;5005147;28;20037;-81
2024/02/27 07:34:05;;;;;;;0.20;0.10;;;;;;;;;;5023520;28;20090;-83
2024/02/27 07:36:32;;;;;;;0.20;0.10;;;;;;;;;;5028466;28;20039;-81
2024/02/27 07:38:58;;;;;;;1.85;0.55;;;;;;;;;;5014490;28;20044;-82
2024/02/27 07:41:27;;;;;;;0.20;0.10;;;;;;;;;;5033174;28;20096;-82
2024/02/27 07:43:53;;;;;;;0.20;0.10;;;;;;;;;;5006693;28;20033;-82
2024/02/27 07:46:19;;;;;;;1.33;1.23;;;;;;;;;;5026712;28;20040;-82
2024/02/27 07:48:45;;;;;;;0.20;0.10;;;;;;;;;;5023365;28;20101;-80
2024/02/27 07:51:30;;;;;;;0.20;0.10;;;;;;;;;;5011801;28;20119;-81
2024/02/27 07:53:57;;;;;;;0.20;0.10;;;;;;;;;;5015391;28;20069;-81
2024/02/27 07:56:23;;;;;;;0.20;0.10;;;;;;;;;;5027685;28;20700;-82
2024/02/27 07:58:49;;;;;;;0.35;0.20;;;;;;;;;;5031106;28;20080;-82
2024/02/27 08:01:16;;;;;;;0.20;0.10;;;;;;;;;;5026952;28;20048;-82
2024/02/27 08:03:42;;;;;;;0.20;0.10;;;;;;;;;;5024133;28;20745;-82
2024/02/27 08:06:08;;;;;;;0.20;0.10;;;;;;;;;;5029414;28;20136;-83
2024/02/27 08:08:34;;;;;;;0.20;0.10;;;;;;;;;;5005817;28;20136;-80
2024/02/27 08:11:02;;;;;;;0.20;0.10;;;;;;;;;;5014503;28;20099;-81
2024/02/27 08:13:30;;;;;;;0.40;0.25;;;;;;;;;;5014784;28;20048;-81
2024/02/27 08:15:56;;;;;;;0.20;0.10;;;;;;;;;;5031562;28;20509;-84
2024/02/27 08:18:23;;;;;;;0.20;0.00;;;;;;;;;;5026254;28;20063;-82
2024/02/27 08:20:49;;;;;;;0.20;0.10;;;;;;;;;;5029375;28;20132;-81
2024/02/27 08:23:16;;;;;;;0.20;0.13;;;;;;;;;;5015368;28;20140;-82
2024/02/27 08:25:42;;;;;;;0.20;0.10;;;;;;;;;;5021130;28;20090;-83
2024/02/27 08:28:09;;;;;;;0.43;0.22;;;;;;;;;;5018384;28;20087;-82
2024/02/27 08:30:35;;;;;;;0.20;0.10;;;;;;;;;;5021243;28;20037;-81
2024/02/27 08:33:01;;;;;;;0.20;0.10;;;;;;;;;;5028667;28;20045;-81
2024/02/27 08:35:27;;;;;;;0.20;0.10;;;;;;;;;;5035348;28;20064;-82
2024/02/27 08:37:53;;;;;;;0.20;0.10;;;;;;;;;;5032577;28;20061;-82
2024/02/27 08:40:19;;;;;;;0.20;0.10;;;;;;;;;;5011918;28;20036;-81
2024/02/27 08:42:45;;;;;;;0.20;0.10;;;;;;;;;;5017828;28;20432;-81
2024/02/27 08:45:11;;;;;;;0.30;0.30;;;;;;;;;;5034239;28;20072;-81
2024/02/27 08:47:37;;;;;;;0.20;0.10;;;;;;;;;;5018617;28;20045;-81
2024/02/27 08:50:04;;;;;;;0.50;0.43;;;;;;;;;;5028459;28;20079;-83
2024/02/27 08:52:30;;;;;;;0.20;0.10;;;;;;;;;;5033606;28;20072;-81
2024/02/27 08:54:56;;;;;;;0.20;0.10;;;;;;;;;;5035770;28;20126;-81
2024/02/27 08:57:22;;;;;;;0.20;0.10;;;;;;;;;;5035872;28;20033;-81
2024/02/27 08:59:48;;;;;;;0.20;0.10;;;;;;;;;;5032469;28;20057;-82
2024/02/27 09:02:14;;;;;;;0.20;0.10;;;;;;;;;;5032288;28;20037;-80
2024/02/27 09:04:40;;;;;;;0.20;0.10;;;;;;;;;;5020315;28;20067;-81
2024/02/27 09:07:06;;;;;;;0.20;0.10;;;;;;;;;;5031433;28;20059;-81
2024/02/27 09:09:32;;;;;;;0.20;0.10;;;;;;;;;;5016816;28;20651;-82
2024/02/27 09:11:58;;;;;;;0.20;0.10;;;;;;;;;;5015280;28;20118;-81
2024/02/27 09:14:25;;;;;;;0.20;0.10;;;;;;;;;;5015647;28;20057;-82
2024/02/27 09:16:51;;;;;;;0.20;0.10;;;;;;;;;;5035989;28;20053;-80
2024/02/27 09:19:20;;;;;;;0.20;0.10;;;;;;;;;;5014477;28;20037;-81
2024/02/27 09:21:47;;;;;;;0.20;0.10;;;;;;;;;;5035491;28;20029;-81
2024/02/27 09:24:13;;;;;;;0.20;0.10;;;;;;;;;;5020237;28;20052;-81
2024/02/27 09:26:39;;;;;;;0.20;0.00;;;;;;;;;;5029661;28;20040;-81
2024/02/27 09:29:05;;;;;;;0.20;0.20;;;;;;;;;;5018175;28;22006;-82
2024/02/27 09:31:31;;;;;;;0.20;0.10;;;;;;;;;;5019302;28;20037;-82
2024/02/27 09:33:57;;;;;;;0.20;0.10;;;;;;;;;;5027550;23;20072;-82
2024/02/27 09:36:23;;;;;;;0.20;0.10;;;;;;;;;;4984300;28;20045;-81
2024/02/27 09:38:49;;;;;;;0.55;0.52;;;;;;;;;;5029279;28;20037;-81
2024/02/27 09:41:34;;;;;;;0.20;0.17;;;;;;;;;;4990190;28;20064;-80
2024/02/27 09:44:01;;;;;;;0.20;0.10;;;;;;;;;;4991278;28;20120;-81
2024/02/27 09:46:27;;;;;;;0.20;0.10;;;;;;;;;;5007151;28;20085;-81
2024/02/27 09:48:55;;;;;;;0.20;0.10;;;;;;;;;;5023918;28;20446;-81
2024/02/27 09:51:23;;;;;;;0.40;0.30;;;;;;;;;;5008602;28;20509;-81
2024/02/27 09:53:49;;;;;;;0.20;0.10;;;;;;;;;;5010728;28;20072;-82
2024/02/27 09:56:16;;;;;;;0.47;0.17;;;;;;;;;;4985227;28;20217;-81
2024/02/27 09:58:43;;;;;;;0.20;0.10;;;;;;;;;;4997413;28;20534;-81
2024/02/27 10:01:12;;;;;;;0.22;0.20;;;;;;;;;;4990682;28;20276;-79
2024/02/27 10:03:40;;;;;;;0.20;0.10;;;;;;;;;;5006461;28;20103;-81
2024/02/27 10:06:07;;;;;;;0.28;0.17;;;;;;;;;;4991421;28;20242;-81
2024/02/27 10:08:33;;;;;;;0.20;0.10;;;;;;;;;;4985861;28;20129;-80
2024/02/27 10:10:59;;;;;;;0.20;0.20;;;;;;;;;;5001621;28;20137;-81
2024/02/27 10:13:25;;;;;;;0.20;0.10;;;;;;;;;;5005340;28;20026;-81
2024/02/27 10:15:51;;;;;;;0.20;0.10;;;;;;;;;;4985766;28;20034;-82
2024/02/27 10:18:18;;;;;;;0.20;0.10;;;;;;;;;;5007452;28;20132;-80
2024/02/27 10:20:44;;;;;;;0.20;0.10;;;;;;;;;;5004986;28;20033;-81
2024/02/27 10:23:10;;;;;;;0.20;0.10;;;;;;;;;;5008292;28;20041;-81
2024/02/27 10:25:36;;;;;;;0.20;0.10;;;;;;;;;;5006115;28;20402;-80
2024/02/27 10:28:02;;;;;;;0.20;0.10;;;;;;;;;;4992287;28;20051;-81
2024/02/27 10:30:28;;;;;;;0.20;0.10;;;;;;;;;;5005148;28;20639;-81
2024/02/27 10:32:54;;;;;;;0.20;0.10;;;;;;;;;;5010048;28;20041;-80
2024/02/27 10:35:22;;;;;;;0.20;0.10;;;;;;;;;;5002498;28;20074;-81
2024/02/27 10:37:48;;;;;;;0.20;0.10;;;;;;;;;;4990756;28;20151;-82
2024/02/27 10:40:14;;;;;;;0.20;0.10;;;;;;;;;;5007990;28;20548;-81
2024/02/27 10:42:41;;;;;;;0.20;0.10;;;;;;;;;;5004846;28;20386;-82
2024/02/27 10:45:07;;;;;;;0.20;0.10;;;;;;;;;;5008377;28;20328;-81
2024/02/27 10:47:33;;;;;;;0.20;0.00;;;;;;;;;;4989527;28;20638;-81
2024/02/27 10:50:01;;;;;;;0.20;0.10;;;;;;;;;;5006567;28;20049;-80
2024/02/27 10:52:30;;;;;;;0.43;0.43;;;;;;;;;;4988708;28;20041;-81
2024/02/27 10:54:57;;;;;;;0.20;0.10;;;;;;;;;;4989510;28;20501;-80
2024/02/27 10:57:25;;;;;;;0.20;0.10;;;;;;;;;;5005503;28;20588;-81
2024/02/27 10:59:52;;;;;;;0.20;0.10;;;;;;;;;;4989848;28;20033;-81
2024/02/27 11:02:19;;;;;;;0.20;0.10;;;;;;;;;;5003854;28;20045;-81
2024/02/27 11:04:51;;;;;;;0.20;0.10;;;;;;;;;;5009862;28;20096;-81
2024/02/27 11:07:17;;;;;;;0.20;0.10;;;;;;;;;;5005917;28;20238;-81
2024/02/27 11:09:44;;;;;;;0.20;0.10;;;;;;;;;;5007042;28;20057;-80
2024/02/27 11:12:11;;;;;;;0.20;0.00;;;;;;;;;;5005340;28;20047;-81
2024/02/27 11:14:41;;;;;;;0.20;0.00;;;;;;;;;;5007461;28;20045;-81
2024/02/27 11:17:20;;;;;;;0.68;0.68;;;;;;;;;;5005995;28;20136;-79
2024/02/27 11:19:50;;;;;;;0.63;0.30;;;;;;;;;;4988238;28;20037;-78
2024/02/27 11:22:25;;;;;;;0.20;0.20;;;;;;;;;;5000773;28;20091;-79
2024/02/27 11:24:52;;;;;;;0.20;0.10;;;;;;;;;;4991098;28;20037;-79
2024/02/27 11:27:22;;;;;;;0.20;0.10;;;;;;;;;;5013731;28;20041;-79
2024/02/27 11:29:49;;;;;;;0.20;0.20;;;;;;;;;;5000086;28;20045;-80
2024/02/27 11:32:15;;;;;;;0.22;0.22;;;;;;;;;;5012329;28;20484;-80
2024/02/27 11:34:41;;;;;;;0.20;0.10;;;;;;;;;;4995775;28;20072;-79
2024/02/27 11:37:07;;;;;;;0.70;0.17;;;;;;;;;;5005810;28;20045;-81
2024/02/27 11:39:33;;;;;;;0.32;0.32;;;;;;;;;;4994857;28;20033;-79
2024/02/27 11:41:59;;;;;;;0.20;0.20;;;;;;;;;;5009406;28;20068;-79
2024/02/27 11:44:26;;;;;;;0.20;0.10;;;;;;;;;;5010916;28;20037;-80
2024/02/27 11:46:55;;;;;;;0.20;0.20;;;;;;;;;;4997514;28;20462;-80
2024/02/27 11:49:40;;;;;;;0.20;0.10;;;;;;;;;;5023759;28;20044;-79
2024/02/27 11:52:07;;;;;;;0.20;0.15;;;;;;;;;;5025086;28;20084;-80
2024/02/27 11:54:35;;;;;;;0.20;0.10;;;;;;;;;;4987066;28;20405;-80
2024/02/27 11:57:01;;;;;;;0.20;0.10;;;;;;;;;;5026896;28;20437;-80
2024/02/27 11:59:32;;;;;;;0.20;0.10;;;;;;;;;;4987593;28;20045;-80
2024/02/27 12:02:03;;;;;;;0.20;0.10;;;;;;;;;;5006520;28;20049;-80
2024/02/27 12:04:29;;;;;;;0.20;0.10;;;;;;;;;;5005991;28;20095;-79
2024/02/27 12:06:56;;;;;;;0.20;0.10;;;;;;;;;;5008737;28;20072;-80
2024/02/27 12:09:25;;;;;;;0.20;0.10;;;;;;;;;;5002102;28;20045;-79
2024/02/27 12:11:53;;;;;;;0.20;0.10;;;;;;;;;;4991379;28;20532;-80
2024/02/27 12:14:19;;;;;;;0.20;0.10;;;;;;;;;;5006723;28;20049;-80
2024/02/27 12:16:45;;;;;;;0.20;0.20;;;;;;;;;;5011248;28;20048;-80
2024/02/27 12:19:11;;;;;;;0.20;0.10;;;;;;;;;;5006664;28;20045;-80
2024/02/27 12:21:37;;;;;;;0.20;0.10;;;;;;;;;;4983000;28;20088;-80
2024/02/27 12:24:14;;;;;;;0.20;0.10;;;;;;;;;;5007124;28;20437;-79
2024/02/27 12:26:41;;;;;;;0.20;0.03;;;;;;;;;;5004894;28;20053;-79
2024/02/27 12:29:09;;;;;;;0.20;0.10;;;;;;;;;;5007600;28;20507;-80
2024/02/27 12:31:35;;;;;;;0.25;0.15;;;;;;;;;;5005382;28;20416;-80
2024/02/27 12:34:02;;;;;;;0.20;0.10;;;;;;;;;;4988362;28;20033;-79
2024/02/27 12:36:28;;;;;;;0.20;0.10;;;;;;;;;;4989112;28;20046;-80
2024/02/27 12:38:55;;;;;;;0.20;0.10;;;;;;;;;;5002558;28;20037;-80
2024/02/27 12:41:21;;;;;;;0.20;0.10;;;;;;;;;;5003932;28;20037;-80
2024/02/27 12:43:47;;;;;;;0.20;0.00;;;;;;;;;;5006547;28;20068;-79
2024/02/27 12:46:17;;;;;;;0.30;0.20;;;;;;;;;;5000871;28;20259;-80
2024/02/27 12:48:44;;;;;;;0.20;0.10;;;;;;;;;;4999736;28;20501;-79
2024/02/27 12:51:11;;;;;;;0.20;0.10;;;;;;;;;;5004178;28;20042;-79
2024/02/27 12:53:37;;;;;;;0.20;0.10;;;;;;;;;;5005388;28;20060;-80
2024/02/27 12:56:03;;;;;;;0.40;0.40;;;;;;;;;;5003263;28;20041;-79
2024/02/27 12:58:29;;;;;;;2.85;0.63;;;;;;;;;;5003335;28;20601;-80
2024/02/27 13:00:56;;;;;;;0.52;0.52;;;;;;;;;;5006236;28;20049;-80
2024/02/27 13:03:26;;;;;;;0.20;0.10;;;;;;;;;;5001868;28;20041;-79
2024/02/27 13:05:52;;;;;;;0.30;0.20;;;;;;;;;;4989479;28;20509;-79
2024/02/27 13:08:18;;;;;;;0.28;0.20;;;;;;;;;;5008790;28;20185;-80
2024/02/27 13:10:44;;;;;;;1.17;0.65;;;;;;;;;;5007417;28;20046;-80
2024/02/27 13:13:13;;;;;;;0.20;0.10;;;;;;;;;;4989100;28;20413;-80
2024/02/27 13:15:42;;;;;;;0.40;0.40;;;;;;;;;;5017887;28;20033;-80
2024/02/27 13:18:08;;;;;;;0.20;0.17;;;;;;;;;;5009292;28;20045;-79
2024/02/27 13:20:34;;;;;;;0.20;0.10;;;;;;;;;;5006796;28;20528;-79
2024/02/27 13:23:00;;;;;;;0.20;0.00;;;;;;;;;;5010590;28;20060;-80
2024/02/27 13:25:26;;;;;;;0.20;0.10;;;;;;;;;;5002048;28;20041;-80
2024/02/27 13:27:52;;;;;;;0.20;0.10;;;;;;;;;;5009534;28;20068;-80
2024/02/27 13:30:18;;;;;;;0.20;0.10;;;;;;;;;;5016290;28;20033;-80
2024/02/27 13:32:44;;;;;;;0.20;0.10;;;;;;;;;;5009484;28;20033;-79
2024/02/27 13:35:10;;;;;;;0.20;0.10;;;;;;;;;;5014550;28;20033;-80
2024/02/27 13:37:37;;;;;;;0.25;0.20;;;;;;;;;;4992439;28;20693;-79
2024/02/27 13:40:03;;;;;;;0.20;0.10;;;;;;;;;;5010164;28;20048;-78
2024/02/27 13:42:29;;;;;;;0.20;0.10;;;;;;;;;;5004436;28;20041;-80
2024/02/27 13:44:55;;;;;;;0.20;0.20;;;;;;;;;;5025821;28;20073;-81
2024/02/27 13:47:21;;;;;;;0.20;0.10;;;;;;;;;;4992148;28;20042;-79
2024/02/27 13:49:48;;;;;;;0.20;0.10;;;;;;;;;;4992534;28;20040;-79
2024/02/27 13:52:14;;;;;;;0.20;0.10;;;;;;;;;;5008878;28;20033;-80
2024/02/27 13:54:41;;;;;;;0.20;0.10;;;;;;;;;;5010062;28;20037;-80
2024/02/27 13:57:06;;;;;;;0.63;0.55;;;;;;;;;;4991580;28;20038;-80
2024/02/27 13:59:32;;;;;;;0.20;0.10;;;;;;;;;;5009210;28;20121;-80
2024/02/27 14:01:59;;;;;;;0.20;0.10;;;;;;;;;;5005423;28;20457;-80
2024/02/27 14:04:25;;;;;;;0.20;0.10;;;;;;;;;;4989369;28;20463;-80
2024/02/27 14:06:51;;;;;;;0.20;0.10;;;;;;;;;;5008869;28;20045;-80
2024/02/27 14:09:17;;;;;;;0.20;0.00;;;;;;;;;;5007629;28;20045;-79
2024/02/27 14:11:43;;;;;;;0.20;0.03;;;;;;;;;;5005645;28;20111;-80
2024/02/27 14:14:10;;;;;;;0.22;0.22;;;;;;;;;;5008199;28;20044;-80
2024/02/27 14:16:36;;;;;;;0.20;0.10;;;;;;;;;;5009926;28;20052;-81
2024/02/27 14:19:04;;;;;;;0.20;0.20;;;;;;;;;;4990257;28;20055;-80
2024/02/27 14:21:31;;;;;;;0.20;0.20;;;;;;;;;;5005271;28;20080;-78
2024/02/27 14:23:57;;;;;;;0.20;0.10;;;;;;;;;;5013304;28;20041;-79
2024/02/27 14:26:23;;;;;;;0.20;0.10;;;;;;;;;;4997538;28;20109;-79
2024/02/27 14:28:49;;;;;;;0.20;0.10;;;;;;;;;;4996005;28;20075;-80
2024/02/27 14:31:15;;;;;;;1.40;0.30;;;;;;;;;;5014380;28;20038;-80
2024/02/27 14:33:41;;;;;;;1.55;0.30;;;;;;;;;;4995206;28;20092;-81
2024/02/27 14:36:07;;;;;;;0.45;0.45;;;;;;;;;;5008931;28;20798;-80
2024/02/27 14:38:33;;;;;;;0.20;0.10;;;;;;;;;;5014847;28;20084;-79
2024/02/27 14:41:00;;;;;;;0.20;0.10;;;;;;;;;;4992338;28;20069;-80
2024/02/27 14:43:26;;;;;;;0.20;0.10;;;;;;;;;;4994091;28;20037;-79